createdAt,value
2022-08-26T00:01:57.887Z,101434.09
2022-08-26T00:04:32.119Z,101433.31
2022-08-26T00:07:05.333Z,101431.59
2022-08-26T00:09:40.129Z,101434.41
2022-08-26T00:12:12.780Z,101438.03
2022-08-26T00:14:45.144Z,101432.06
2022-08-26T00:17:17.156Z,101438.63
2022-08-26T00:19:49.189Z,101441.56
2022-08-26T00:22:25.363Z,101433.88
2022-08-26T00:24:58.328Z,101435.78
2022-08-26T00:27:34.004Z,101435.09
2022-08-26T00:30:14.358Z,101426.38
2022-08-26T00:32:47.246Z,101431.81
2022-08-26T00:35:21.533Z,101429.03
2022-08-26T00:37:56.737Z,101420.34
2022-08-26T00:40:35.595Z,101417.88
2022-08-26T00:43:09.429Z,101415.28
2022-08-26T00:45:49.729Z,101411.94
2022-08-26T00:48:25.347Z,101414.00
2022-08-26T00:51:07.557Z,101409.59
2022-08-26T00:53:57.884Z,101413.22
2022-08-26T00:56:38.871Z,101417.69
2022-08-26T00:59:13.971Z,101416.84
2022-08-26T01:01:49.495Z,101410.63
2022-08-26T01:04:23.973Z,101409.75
2022-08-26T01:06:58.211Z,101416.91
2022-08-26T01:09:31.166Z,101416.84
2022-08-26T01:12:04.302Z,101416.84
2022-08-26T01:14:37.466Z,101416.84
2022-08-26T01:17:10.006Z,101416.91
2022-08-26T01:20:00.277Z,101413.38
2022-08-26T01:22:56.219Z,101421.56
2022-08-26T01:25:32.846Z,101422.59
2022-08-26T01:28:09.465Z,101416.22
2022-08-26T01:30:44.289Z,101425.09
2022-08-26T01:33:19.878Z,101426.13
2022-08-26T01:35:52.450Z,101423.63
2022-08-26T01:38:24.714Z,101421.09
2022-08-26T01:40:57.369Z,101420.31
2022-08-26T01:43:33.266Z,101421.41
2022-08-26T01:46:06.839Z,101417.19
2022-08-26T01:48:44.945Z,101420.81
2022-08-26T01:51:20.830Z,101422.53
2022-08-26T01:53:53.265Z,101424.41
2022-08-26T01:56:25.552Z,101415.63
2022-08-26T01:59:08.071Z,101421.28
2022-08-26T02:01:41.551Z,101417.06
2022-08-26T02:04:33.544Z,101416.34
2022-08-26T02:07:10.015Z,101423.44
2022-08-26T02:09:42.945Z,101422.72
2022-08-26T02:12:17.722Z,101417.63
2022-08-26T02:14:57.447Z,101422.19
2022-08-26T02:17:35.562Z,101420.63
2022-08-26T02:20:13.237Z,101423.28
2022-08-26T02:22:47.894Z,101422.44
2022-08-26T02:25:39.622Z,101418.91
2022-08-26T02:28:13.237Z,101422.56
2022-08-26T02:30:47.277Z,101418.94
2022-08-26T02:33:19.721Z,101420.69
2022-08-26T02:35:52.059Z,101419.88
2022-08-26T02:38:24.125Z,101414.63
2022-08-26T02:40:56.434Z,101407.63
2022-08-26T02:43:31.697Z,101411.16
2022-08-26T02:46:06.058Z,101411.50
2022-08-26T02:48:38.437Z,101410.72
2022-08-26T02:51:11.641Z,101412.59
2022-08-26T02:53:45.323Z,101407.69
2022-08-26T02:56:17.383Z,101401.72
2022-08-26T02:58:50.358Z,101410.06
2022-08-26T03:01:27.712Z,101411.22
2022-08-26T03:04:03.170Z,101412.25
2022-08-26T03:06:35.749Z,101406.28
2022-08-26T03:09:09.631Z,101402.81
2022-08-26T03:11:41.745Z,101403.84
2022-08-26T03:14:13.824Z,101395.91
2022-08-26T03:16:48.431Z,101396.06
2022-08-26T03:19:23.386Z,101394.56
2022-08-26T03:21:57.857Z,101391.97
2022-08-26T03:24:30.608Z,101387.75
2022-08-26T03:27:06.014Z,101385.19
2022-08-26T03:29:58.572Z,101385.50
2022-08-26T03:32:30.748Z,101389.25
2022-08-26T03:35:02.802Z,101391.13
2022-08-26T03:37:34.792Z,101380.50
2022-08-26T03:40:10.554Z,101390.38
2022-08-26T03:42:45.439Z,101390.47
2022-08-26T03:45:20.174Z,101384.19
2022-08-26T03:47:52.594Z,101383.25
2022-08-26T03:50:25.646Z,101377.28
2022-08-26T03:52:59.058Z,101374.69
2022-08-26T03:55:33.292Z,101379.16
2022-08-26T03:58:05.349Z,101380.16
2022-08-26T04:00:37.516Z,101376.56
2022-08-26T04:03:14.740Z,101382.69
2022-08-26T04:05:52.449Z,101380.03
2022-08-26T04:08:24.856Z,101385.28
2022-08-26T04:11:01.328Z,101377.44
2022-08-26T04:13:33.754Z,101383.56
2022-08-26T04:16:06.146Z,101380.97
2022-08-26T04:18:38.337Z,101380.16
2022-08-26T04:21:18.773Z,101380.41
2022-08-26T04:23:51.377Z,101380.53
2022-08-26T04:26:24.455Z,101377.09
2022-08-26T04:28:56.452Z,101372.84
2022-08-26T04:31:28.577Z,101373.00
2022-08-26T04:34:05.052Z,101373.00
2022-08-26T04:36:37.895Z,101373.00
2022-08-26T04:39:12.396Z,101375.66
2022-08-26T04:41:45.077Z,101376.53
2022-08-26T04:44:17.973Z,101382.56
2022-08-26T04:46:50.003Z,101378.19
2022-08-26T04:49:22.265Z,101380.84
2022-08-26T04:51:55.029Z,101394.16
2022-08-26T04:54:27.875Z,101380.13
2022-08-26T04:57:00.490Z,101385.47
2022-08-26T04:59:35.969Z,101385.53
2022-08-26T05:02:11.974Z,101382.94
2022-08-26T05:04:44.028Z,101382.06
2022-08-26T05:07:17.708Z,101387.41
2022-08-26T05:09:49.750Z,101390.00
2022-08-26T05:12:21.978Z,101392.66
2022-08-26T05:14:54.149Z,101387.41
2022-08-26T05:17:29.884Z,101393.59
2022-08-26T05:20:02.034Z,101386.75
2022-08-26T05:22:34.065Z,101387.63
2022-08-26T05:25:06.967Z,101386.75
2022-08-26T05:27:38.998Z,101391.78
2022-08-26T05:30:11.712Z,101388.41
2022-08-26T05:32:43.929Z,101392.94
2022-08-26T05:35:17.460Z,101396.13
2022-08-26T05:37:50.012Z,101398.72
2022-08-26T05:40:22.516Z,101403.81
2022-08-26T05:42:55.694Z,101405.41
2022-08-26T05:45:28.102Z,101397.09
2022-08-26T05:48:00.099Z,101400.41
2022-08-26T05:50:32.157Z,101399.41
2022-08-26T05:53:04.611Z,101399.25
2022-08-26T05:55:45.533Z,101404.38
2022-08-26T05:58:22.624Z,101406.91
2022-08-26T06:01:05.237Z,101407.78
2022-08-26T06:03:40.380Z,101408.00
2022-08-26T06:06:27.589Z,101412.38
2022-08-26T06:09:04.614Z,101405.25
2022-08-26T06:11:36.951Z,101406.84
2022-08-26T06:14:09.554Z,101403.94
2022-08-26T06:16:45.404Z,101400.06
2022-08-26T06:19:17.626Z,101402.19
2022-08-26T06:21:54.666Z,101407.06
2022-08-26T06:24:45.899Z,101397.03
2022-08-26T06:27:18.314Z,101391.28
2022-08-26T06:29:51.669Z,101396.22
2022-08-26T06:32:24.470Z,101395.06
2022-08-26T06:34:56.801Z,101399.09
2022-08-26T06:37:29.599Z,101404.19
2022-08-26T06:40:01.737Z,101401.44
2022-08-26T06:42:36.107Z,101394.84
2022-08-26T06:45:08.702Z,101402.56
2022-08-26T06:47:40.685Z,101399.72
2022-08-26T06:50:12.910Z,101402.06
2022-08-26T06:52:45.151Z,101406.22
2022-08-26T06:55:17.219Z,101411.22
2022-08-26T06:57:50.559Z,101418.91
2022-08-26T07:00:22.712Z,101416.69
2022-08-26T07:02:54.844Z,101415.28
2022-08-26T07:05:27.058Z,101417.59
2022-08-26T07:07:59.421Z,101422.38
2022-08-26T07:10:32.023Z,101415.00
2022-08-26T07:13:04.500Z,101417.06
2022-08-26T07:15:42.771Z,101420.84
2022-08-26T07:18:15.196Z,101431.91
2022-08-26T07:20:47.212Z,101418.81
2022-08-26T07:23:19.469Z,101422.75
2022-08-26T07:25:51.470Z,101417.75
2022-08-26T07:28:24.872Z,101417.75
2022-08-26T07:30:58.551Z,101416.94
2022-08-26T07:33:31.506Z,101416.22
2022-08-26T07:36:04.207Z,101407.75
2022-08-26T07:38:38.790Z,101421.25
2022-08-26T07:41:13.358Z,101418.72
2022-08-26T07:43:45.993Z,101421.06
2022-08-26T07:46:29.961Z,101419.03
2022-08-26T07:49:02.392Z,101429.28
2022-08-26T07:51:35.764Z,101431.25
2022-08-26T07:54:08.866Z,101432.06
2022-08-26T07:56:41.143Z,101434.03
2022-08-26T07:59:18.495Z,101444.56
2022-08-26T08:01:51.431Z,101443.88
2022-08-26T08:04:26.607Z,101448.06
2022-08-26T08:06:58.959Z,101448.22
2022-08-26T08:09:31.067Z,101438.97
2022-08-26T08:12:04.626Z,101445.69
2022-08-26T08:14:37.287Z,101442.22
2022-08-26T08:17:09.677Z,101450.19
2022-08-26T08:19:42.291Z,101444.25
2022-08-26T08:22:17.600Z,101450.81
2022-08-26T08:24:53.028Z,101441.03
2022-08-26T08:27:25.978Z,101447.56
2022-08-26T08:29:58.131Z,101440.56
2022-08-26T08:32:30.314Z,101434.88
2022-08-26T08:35:02.923Z,101448.28
2022-08-26T08:37:44.093Z,101437.69
2022-08-26T08:40:18.491Z,101438.28
2022-08-26T08:43:39.487Z,101442.88
2022-08-26T08:46:15.454Z,101440.78
2022-08-26T08:48:54.677Z,101448.19
2022-08-26T08:51:48.312Z,101437.75
2022-08-26T08:54:21.994Z,101444.38
2022-08-26T08:57:13.176Z,101448.25
2022-08-26T09:00:03.771Z,101436.25
2022-08-26T09:02:48.057Z,101443.25
2022-08-26T09:05:30.024Z,101441.78
2022-08-26T09:08:11.135Z,101438.88
2022-08-26T09:11:00.620Z,101444.94
2022-08-26T09:13:32.674Z,101437.38
2022-08-26T09:16:14.368Z,101438.22
2022-08-26T09:19:19.002Z,101437.09
2022-08-26T09:22:00.352Z,101437.56
2022-08-26T09:24:41.282Z,101434.72
2022-08-26T09:27:44.444Z,101429.31
2022-08-26T09:30:33.067Z,101434.06
2022-08-26T09:33:10.150Z,101422.88
2022-08-26T09:35:47.446Z,101428.09
2022-08-26T09:38:30.585Z,101430.28
2022-08-26T09:41:08.394Z,101424.22
2022-08-26T09:43:40.875Z,101423.09
2022-08-26T09:46:20.532Z,101426.31
2022-08-26T09:48:53.324Z,101423.66
2022-08-26T09:51:32.019Z,101414.44
2022-08-26T09:54:05.706Z,101419.34
2022-08-26T09:56:40.314Z,101420.91
2022-08-26T09:59:12.572Z,101412.00
2022-08-26T10:01:45.210Z,101412.31
2022-08-26T10:04:23.257Z,101406.81
2022-08-26T10:07:03.274Z,101406.53
2022-08-26T10:09:43.154Z,101414.97
2022-08-26T10:12:21.953Z,101411.78
2022-08-26T10:15:00.557Z,101413.41
2022-08-26T10:17:39.425Z,101399.34
2022-08-26T10:20:23.847Z,101409.84
2022-08-26T10:23:17.370Z,101398.28
2022-08-26T10:26:05.849Z,101403.28
2022-08-26T10:28:53.034Z,101405.38
2022-08-26T10:31:40.223Z,101397.66
2022-08-26T10:34:14.195Z,101401.25
2022-08-26T10:37:14.932Z,101403.19
2022-08-26T10:40:11.973Z,101402.94
2022-08-26T10:43:11.322Z,101401.69
2022-08-26T10:45:51.508Z,101398.13
2022-08-26T10:48:49.103Z,101396.88
2022-08-26T10:51:35.629Z,101392.94
2022-08-26T10:54:13.956Z,101403.22
2022-08-26T10:57:03.844Z,101388.81
2022-08-26T10:59:56.760Z,101383.97
2022-08-26T11:02:41.042Z,101389.41
2022-08-26T11:05:25.349Z,101384.88
2022-08-26T11:08:19.517Z,101384.53
2022-08-26T11:10:58.023Z,101377.88
2022-08-26T11:14:01.285Z,101383.31
2022-08-26T11:16:35.070Z,101384.31
2022-08-26T11:19:10.849Z,101379.81
2022-08-26T11:22:02.849Z,101370.75
2022-08-26T11:24:53.392Z,101369.75
2022-08-26T11:27:37.499Z,101362.63
2022-08-26T11:30:13.190Z,101364.78
2022-08-26T11:32:58.200Z,101354.78
2022-08-26T11:35:47.703Z,101360.53
2022-08-26T11:38:29.156Z,101352.91
2022-08-26T11:41:16.625Z,101343.59
2022-08-26T11:43:52.267Z,101339.47
2022-08-26T11:46:31.393Z,101342.13
2022-08-26T11:49:07.413Z,101339.72
2022-08-26T11:51:40.927Z,101345.41
2022-08-26T11:54:35.203Z,101332.34
2022-08-26T11:57:12.679Z,101335.88
2022-08-26T11:59:44.843Z,101343.00
2022-08-26T12:02:18.189Z,101346.75
2022-08-26T12:04:53.861Z,101349.38
2022-08-26T12:07:29.059Z,101332.94
2022-08-26T12:10:04.543Z,101331.13
2022-08-26T12:12:39.510Z,101335.81
2022-08-26T12:15:20.082Z,101336.94
2022-08-26T12:17:54.592Z,101328.06
2022-08-26T12:20:49.009Z,101318.94
2022-08-26T12:23:47.919Z,101319.72
2022-08-26T12:26:35.871Z,101326.84
2022-08-26T12:29:27.146Z,101321.28
2022-08-26T12:32:14.899Z,101313.91
2022-08-26T12:34:49.216Z,101308.28
2022-08-26T12:37:21.534Z,101306.56
2022-08-26T12:39:54.279Z,101296.75
2022-08-26T12:42:42.539Z,101289.63
2022-08-26T12:45:56.307Z,101282.22
2022-08-26T12:48:36.128Z,101279.72
2022-08-26T12:51:15.809Z,101290.59
2022-08-26T12:53:47.800Z,101281.78
2022-08-26T12:56:41.235Z,101278.03
2022-08-26T12:59:25.815Z,101273.63
2022-08-26T13:01:58.054Z,101274.56
2022-08-26T13:04:44.193Z,101278.88
2022-08-26T13:07:21.676Z,101304.22
2022-08-26T13:09:57.708Z,101306.06
2022-08-26T13:12:37.605Z,101299.81
2022-08-26T13:15:09.916Z,101302.03
2022-08-26T13:17:42.009Z,101300.38
2022-08-26T13:20:14.108Z,101299.59
2022-08-26T13:22:46.171Z,101299.81
2022-08-26T13:25:30.480Z,101293.31
2022-08-26T13:28:02.733Z,101300.50
2022-08-26T13:30:35.200Z,101310.56
2022-08-26T13:33:08.865Z,101323.34
2022-08-26T13:35:44.750Z,101329.19
2022-08-26T13:38:33.339Z,101350.94
2022-08-26T13:41:06.396Z,101352.75
2022-08-26T13:43:38.416Z,101349.25
2022-08-26T13:46:10.485Z,101345.06
2022-08-26T13:48:42.567Z,101349.81
2022-08-26T13:51:18.764Z,101362.91
2022-08-26T13:53:51.807Z,101371.53
2022-08-26T13:56:27.470Z,101373.22
2022-08-26T13:59:01.311Z,101378.19
2022-08-26T14:01:36.213Z,101383.69
2022-08-26T14:04:08.800Z,101384.97
2022-08-26T14:06:40.845Z,101388.38
2022-08-26T14:09:12.950Z,101379.81
2022-08-26T14:11:52.065Z,101379.44
2022-08-26T14:14:26.990Z,101375.78
2022-08-26T14:17:00.438Z,101375.84
2022-08-26T14:19:32.759Z,101375.34
2022-08-26T14:22:04.897Z,101366.16
2022-08-26T14:24:36.983Z,101362.50
2022-08-26T14:27:08.994Z,101352.19
2022-08-26T14:29:41.506Z,101363.25
2022-08-26T14:32:23.714Z,101376.19
2022-08-26T14:34:56.430Z,101382.66
2022-08-26T14:37:28.538Z,101381.88
2022-08-26T14:40:00.660Z,101373.06
2022-08-26T14:42:35.623Z,101368.81
2022-08-26T14:45:11.527Z,101365.75
2022-08-26T14:47:48.448Z,101371.69
2022-08-26T14:50:25.285Z,101375.50
2022-08-26T14:53:16.228Z,101370.41
2022-08-26T14:55:51.652Z,101377.66
2022-08-26T14:58:24.085Z,101385.75
2022-08-26T15:00:57.609Z,101394.19
2022-08-26T15:03:30.204Z,101398.06
2022-08-26T15:06:02.649Z,101379.44
2022-08-26T15:08:36.923Z,101377.03
2022-08-26T15:11:09.091Z,101370.81
2022-08-26T15:13:41.347Z,101379.19
2022-08-26T15:16:14.245Z,101392.31
2022-08-26T15:18:46.405Z,101390.06
2022-08-26T15:21:23.018Z,101400.41
2022-08-26T15:23:55.412Z,101395.56
2022-08-26T15:26:29.967Z,101385.75
2022-08-26T15:29:04.975Z,101380.41
2022-08-26T15:31:38.074Z,101376.00
2022-08-26T15:34:16.440Z,101366.94
2022-08-26T15:36:49.452Z,101365.47
2022-08-26T15:39:21.842Z,101375.91
2022-08-26T15:41:56.240Z,101371.19
2022-08-26T15:44:28.953Z,101373.16
2022-08-26T15:47:01.064Z,101365.91
2022-08-26T15:49:33.219Z,101363.47
2022-08-26T15:52:05.545Z,101357.44
2022-08-26T15:54:37.854Z,101358.03
2022-08-26T15:57:12.372Z,101364.34
2022-08-26T15:59:45.708Z,101359.06
2022-08-26T16:02:17.895Z,101355.72
2022-08-26T16:04:49.977Z,101364.75
2022-08-26T16:07:22.350Z,101365.91
2022-08-26T16:09:55.204Z,101362.25
2022-08-26T16:12:27.687Z,101366.78
2022-08-26T16:14:59.808Z,101373.47
2022-08-26T16:17:31.998Z,101369.75
2022-08-26T16:20:05.171Z,101372.00
2022-08-26T16:22:37.203Z,101364.75
2022-08-26T16:25:09.940Z,101354.75
2022-08-26T16:27:42.111Z,101356.97
2022-08-26T16:30:15.404Z,101360.31
2022-08-26T16:32:48.648Z,101360.63
2022-08-26T16:35:20.875Z,101370.47
2022-08-26T16:37:53.599Z,101377.78
2022-08-26T16:40:26.009Z,101388.91
2022-08-26T16:42:58.783Z,101388.75
2022-08-26T16:45:31.085Z,101394.63
2022-08-26T16:48:05.042Z,101391.00
2022-08-26T16:50:40.783Z,101392.09
2022-08-26T16:56:05.484Z,101395.19
2022-08-26T16:58:37.503Z,101403.47
2022-08-26T17:01:09.962Z,101397.88
2022-08-26T17:03:42.589Z,101411.75
2022-08-26T17:06:15.392Z,101416.59
2022-08-26T17:08:48.103Z,101420.63
2022-08-26T17:11:20.258Z,101429.16
2022-08-26T17:13:52.349Z,101428.56
2022-08-26T17:16:27.145Z,101443.03
2022-08-26T17:19:00.340Z,101442.97
2022-08-26T17:21:35.043Z,101448.38
2022-08-26T17:24:07.319Z,101447.69
2022-08-26T17:26:39.338Z,101449.31
2022-08-26T17:29:12.427Z,101454.84
2022-08-26T17:31:44.605Z,101454.13
2022-08-26T17:34:17.224Z,101457.81
2022-08-26T17:36:50.107Z,101460.19
2022-08-26T17:39:22.078Z,101466.22
2022-08-26T17:41:54.105Z,101468.53
2022-08-26T17:44:26.659Z,101470.69
2022-08-26T17:46:58.623Z,101463.03
2022-08-26T17:49:30.589Z,101469.25
2022-08-26T17:52:03.284Z,101472.75
2022-08-26T17:54:35.474Z,101475.13
2022-08-26T17:57:10.716Z,101476.78
2022-08-26T17:59:42.963Z,101471.09
2022-08-26T18:02:16.034Z,101468.97
2022-08-26T18:04:48.143Z,101478.31
2022-08-26T18:07:20.353Z,101477.75
2022-08-26T18:09:52.382Z,101476.63
2022-08-26T18:12:24.370Z,101483.25
2022-08-26T18:14:59.912Z,101480.13
2022-08-26T18:17:32.016Z,101470.31
2022-08-26T18:20:04.793Z,101475.00
2022-08-26T18:22:36.847Z,101474.78
2022-08-26T18:25:09.733Z,101471.25
2022-08-26T18:27:42.174Z,101471.41
2022-08-26T18:30:20.760Z,101479.19
2022-08-26T18:32:53.570Z,101479.41
2022-08-26T18:35:28.547Z,101483.09
2022-08-26T18:38:10.347Z,101483.00
2022-08-26T18:40:45.298Z,101487.84
2022-08-26T18:43:17.333Z,101487.13
2022-08-26T18:45:49.591Z,101484.81
2022-08-26T18:48:23.207Z,101495.97
2022-08-26T18:50:55.431Z,101499.56
2022-08-26T18:53:29.487Z,101502.81
2022-08-26T18:56:01.744Z,101507.28
2022-08-26T18:58:33.778Z,101508.88
2022-08-26T19:01:06.294Z,101510.81
2022-08-26T19:03:38.385Z,101508.16
2022-08-26T19:06:18.696Z,101519.47
2022-08-26T19:08:50.884Z,101505.75
2022-08-26T19:11:32.624Z,101510.31
2022-08-26T19:14:13.765Z,101503.97
2022-08-26T19:16:48.747Z,101501.31
2022-08-26T19:19:24.167Z,101501.16
2022-08-26T19:21:56.200Z,101490.78
2022-08-26T19:24:28.747Z,101486.75
2022-08-26T19:27:02.251Z,101493.88
2022-08-26T19:29:36.116Z,101492.16
2022-08-26T19:32:08.707Z,101496.53
2022-08-26T19:34:40.786Z,101493.22
2022-08-26T19:37:12.769Z,101487.97
2022-08-26T19:39:44.860Z,101478.38
2022-08-26T19:42:17.092Z,101466.13
2022-08-26T19:45:07.372Z,101472.13
2022-08-26T19:47:53.591Z,101474.84
2022-08-26T19:50:29.664Z,101471.66
2022-08-26T19:53:04.186Z,101484.13
2022-08-26T19:55:36.209Z,101478.66
2022-08-26T19:58:08.393Z,101488.47
2022-08-26T20:00:42.474Z,101493.13
2022-08-26T20:03:15.823Z,101484.34
2022-08-26T20:05:48.956Z,101479.72
2022-08-26T20:08:22.641Z,101471.00
2022-08-26T20:10:55.804Z,101477.28
2022-08-26T20:13:28.372Z,101488.47
2022-08-26T20:16:00.350Z,101490.03
2022-08-26T20:18:50.936Z,101486.09
2022-08-26T20:21:29.632Z,101484.56
2022-08-26T20:24:09.477Z,101485.38
2022-08-26T20:26:44.226Z,101491.13
2022-08-26T20:29:18.448Z,101495.28
2022-08-26T20:31:52.699Z,101491.38
2022-08-26T20:34:26.384Z,101496.81
2022-08-26T20:36:59.538Z,101500.94
2022-08-26T20:39:31.934Z,101495.88
2022-08-26T20:42:04.641Z,101493.91
2022-08-26T20:44:37.811Z,101505.81
2022-08-26T20:47:15.320Z,101509.28
2022-08-26T20:49:47.382Z,101514.47
2022-08-26T20:52:24.910Z,101512.75
2022-08-26T20:54:57.142Z,101520.47
2022-08-26T20:57:29.193Z,101523.53
2022-08-26T21:00:01.336Z,101524.84
2022-08-26T21:02:34.173Z,101515.66
2022-08-26T21:05:07.739Z,101519.25
2022-08-26T21:07:39.822Z,101522.41
2022-08-26T21:10:12.881Z,101519.72
2022-08-26T21:12:45.132Z,101525.66
2022-08-26T21:15:17.251Z,101524.31
2022-08-26T21:17:49.352Z,101524.53
2022-08-26T21:20:21.649Z,101522.84
2022-08-26T21:22:53.697Z,101531.66
2022-08-26T21:25:26.187Z,101526.00
2022-08-26T21:27:58.254Z,101527.13
2022-08-26T21:30:30.312Z,101524.78
2022-08-26T21:33:02.346Z,101530.09
2022-08-26T21:35:34.832Z,101529.78
2022-08-26T21:38:06.921Z,101538.97
2022-08-26T21:40:38.981Z,101536.97
2022-08-26T21:43:16.198Z,101542.94
2022-08-26T21:46:14.568Z,101543.19
2022-08-26T21:48:54.752Z,101544.94
2022-08-26T21:51:30.814Z,101538.47
2022-08-26T21:54:10.526Z,101536.88
2022-08-26T21:56:46.780Z,101542.75
2022-08-26T21:59:19.635Z,101545.28
2022-08-26T22:01:51.734Z,101536.63
2022-08-26T22:04:24.383Z,101549.13
2022-08-26T22:06:59.587Z,101543.38
2022-08-26T22:09:32.437Z,101543.19
2022-08-26T22:12:05.238Z,101543.19
2022-08-26T22:14:39.341Z,101540.28
2022-08-26T22:17:12.035Z,101536.88
2022-08-26T22:19:45.717Z,101538.41
2022-08-26T22:22:18.563Z,101537.94
2022-08-26T22:24:50.739Z,101532.56
2022-08-26T22:27:23.329Z,101536.13
2022-08-26T22:29:55.422Z,101535.75
2022-08-26T22:32:27.508Z,101537.88
2022-08-26T22:34:59.539Z,101540.41
2022-08-26T22:37:31.586Z,101548.25
2022-08-26T22:40:06.156Z,101552.06
2022-08-26T22:42:39.500Z,101546.84
2022-08-26T22:45:12.322Z,101548.34
2022-08-26T22:47:44.356Z,101551.72
2022-08-26T22:50:16.392Z,101549.72
2022-08-26T22:52:48.376Z,101554.44
2022-08-26T22:55:20.426Z,101553.66
2022-08-26T22:57:52.869Z,101557.13
2022-08-26T23:00:31.793Z,101558.94
2022-08-26T23:03:04.992Z,101555.13
2022-08-26T23:05:39.498Z,101560.72
2022-08-26T23:08:12.782Z,101552.88
2022-08-26T23:10:47.622Z,101559.13
2022-08-26T23:13:20.199Z,101562.13
2022-08-26T23:16:02.344Z,101559.34
2022-08-26T23:18:34.435Z,101553.97
2022-08-26T23:21:08.150Z,101553.09
2022-08-26T23:23:40.161Z,101548.72
2022-08-26T23:26:16.675Z,101545.56
2022-08-26T23:28:49.602Z,101544.00
2022-08-26T23:31:21.805Z,101537.41
2022-08-26T23:34:12.203Z,101538.13
2022-08-26T23:36:44.375Z,101531.88
2022-08-26T23:39:18.669Z,101540.75
2022-08-26T23:41:50.683Z,101533.94
2022-08-26T23:44:22.696Z,101533.13
2022-08-26T23:46:55.574Z,101533.31
2022-08-26T23:49:28.258Z,101529.78
2022-08-26T23:52:19.194Z,101535.09
2022-08-26T23:54:52.934Z,101528.66
2022-08-26T23:57:26.356Z,101533.22
2022-08-26T23:59:58.365Z,101528.72
